23:02
Airports
Links
Donate
Help keep this website running!
PayPal
Bitcoin
METAR
KBKF 222258Z 04004KT 5SM BR FEW010 BKN055 M04/M08 A2992 RMK AO2A SLP176 T10441082
Current Weather Conditions at KBKF
MVFR 22:58:00 22-02-18
Automated station
Altimeter:29.92 hg
Temp:-4.4°c 25°f
Dew point:-8.2°c 18°f
Wind:4 knots, 4.6 mph, 2 m/s, from 40°
Visibility:5.0 statute miles
5500(BKN) Broken
1000(FEW) A few
Past METAR reports
VFR 21:58:00 22-02-18
Automated station
Altimeter:29.91 hg
Temp:-3.8°c 27°f
Dew point:-7.9°c 19°f
Wind:8 knots, 9.2 mph, 4 m/s, from 10°
Visibility:10.0 statute miles
5500(BKN) Broken
KBKF 222158Z 01008KT 10SM BKN055 M04/M08 A2991 RMK AO2A SLP172 T10381079
VFR 20:58:00 22-02-18
Automated station
Altimeter:29.90 hg
Temp:-3.3°c 27°f
Dew point:-8.0°c 18°f
Wind:3 knots, 3.5 mph, 2 m/s, from 360°
Visibility:10.0 statute miles
20000(FEW) A few
10000(FEW) A few
KBKF 222058Z 36003KT 10SM FEW100 FEW200 M03/M08 A2990 RMK AO2A SLP168 T10331080 55012
VFR 19:58:00 22-02-18
Automated station
Altimeter:29.89 hg
Temp:-4.6°c 25°f
Dew point:-9.3°c 16°f
Wind:6 knots, 6.9 mph, 3 m/s, from 20°
Visibility:10.0 statute miles
20000(BKN) Broken
10000(BKN) Broken
7500(SCT) Scattered
3000(FEW) A few
KBKF 221958Z 02006KT 10SM FEW030 SCT075 BKN100 BKN200 M05/M09 A2989 RMK AO2A SLP174 T10461093
VFR 18:58:00 22-02-18
Automated station
Altimeter:29.91 hg
Temp:-3.9°c 27°f
Dew point:-8.7°c 18°f
Wind:7 knots, 8.1 mph, 4 m/s, from 360°
Visibility:10.0 statute miles
20000(BKN) Broken
13000(SCT) Scattered
7000(FEW) A few
KBKF 221858Z 36007KT 10SM FEW070 SCT130 BKN200 M04/M09 A2991 RMK AO2A SLP182 T10391087
VFR 17:58:00 22-02-18
Automated station
Altimeter:29.93 hg
Temp:-4.9°c 25°f
Dew point:-9.8°c 16°f
Wind:3 knots, 3.5 mph, 2 m/s, from 350°
Visibility:10.0 statute miles
20000(BKN) Broken
12000(SCT) Scattered
6500(FEW) A few
KBKF 221758Z 35003KT 10SM FEW065 SCT120 BKN200 M05/M10 A2993 RMK AO2A SLP185 T10491098 11047 21117 58011
TAF
TAF KBKF 221702Z 2217/2323 VRB06KT 9999 SCT020 BKN050 QNH2989INS BECMG 2218/2219 05009KT 9999 BKN020 620209 QNH2987INS BECMG 2222/2223 03009KT 8000 -SN BKN010 620109 QNH2989INS BECMG 2302/2303 20009KT 9999 NSW SCT015 QNH2994INS BECMG 2309/2310 19009KT 9999 SKC QNH2991INS BECMG 2319/2320 16012KT 9999 FEW040 QNH2986INS TXM02/2223Z TNM13/2311Z
Forecast at KBKF
17:00 22-02-18 to 18:00 22-02-18
Wind:6 Knots from 360°
Visibility:6.21 statute miles
2000SCT Scattered
5000BKN Broken
BECMG 18:00 22-02-18 to 22:00 22-02-18
Wind:9 Knots from 50°
Visibility:6.21 statute miles
2000BKN Broken
BECMG 22:00 22-02-18 to 02:00 23-02-18
-SN
Wind:9 Knots from 30°
Visibility:4.97 statute miles
1000BKN Broken
BECMG 02:00 23-02-18 to 09:00 23-02-18
NSW
Wind:9 Knots from 200°
Visibility:6.21 statute miles
1500SCT Scattered
BECMG 09:00 23-02-18 to 19:00 23-02-18
NSW
Wind:9 Knots from 190°
Visibility:6.21 statute miles
SKC Clear
BECMG 19:00 23-02-18 to 23:00 23-02-18
NSW
Wind:12 Knots from 160°
Visibility:6.21 statute miles
4000FEW A few